Weather observations for the past three days for
Clinton, Clinton Regional Airport
Imperial (Metric)
Date Time (cdt) Wind (mph) Vis. (mi.) Weather Sky Cond. Temperature (ºF) Relative Humidity Wind Chill (°F) Heat Index (°F) Pressure Precipitation (in)
Air Dwpt 6 hour altimeter (in) sea level (mb) 1 hr 3 hr 6 hr
Max. Min.
30 23:15 S 12 10.00 Fair CLR 84.2 51.8 33% 82 29.95 0.0
30 22:55 S 9 10.00 Fair CLR 84.2 51.8 33% 82 29.94 0.0
30 22:35 S 7 10.00 Fair CLR 86 51.8 31% 84 29.94 0.0
30 22:15 S 9 10.00 Fair CLR 86 51.8 31% 84 29.93 0.0
30 21:55 S 9 10.00 Fair CLR 87.8 51.8 29% 85 29.93 0.0
30 21:35 S 9 10.00 Fair CLR 87.8 51.8 29% 85 29.92 0.0
30 21:15 S 10 10.00 Fair CLR 89.6 51.8 27% 87 29.91 0.0
30 20:55 S 12 10.00 Fair CLR 91.4 51.8 26% 89 29.91 0.0
30 20:35 S 12 10.00 Fair CLR 93.2 51.8 24% 90 29.9 0.0
30 20:15 S 12 10.00 Fair CLR 95 51.8 23% 92 29.9 0.0
30 19:55 S 14 G 17 10.00 Fair CLR 96.8 51.8 22% 94 29.89 0.0
30 19:35 S 12 G 23 10.00 Fair CLR 96.8 50 20% 94 29.89 0.0
30 19:15 S 14 G 20 10.00 Fair CLR 98.6 50 19% 95 29.89 0.0
30 18:55 S 16 G 22 10.00 Fair CLR 98.6 50 19% 95 29.89 0.0
30 18:35 S 18 G 23 10.00 Fair CLR 98.6 50 19% 95 29.89 0.0
30 18:15 S 17 G 28 10.00 Fair CLR 100.4 51.8 20% 98 29.89 0.0
30 17:55 S 15 G 24 10.00 Fair CLR 100.4 51.8 20% 98 29.88 0.0
30 17:35 S 18 G 28 10.00 Fair CLR 100.4 51.8 20% 98 29.88 0.0
30 17:15 SW 14 G 23 10.00 Fair CLR 102.2 53.6 20% 100 29.89 0.0
30 16:55 S 16 10.00 Fair CLR 102.2 51.8 18% 100 29.89 0.0
30 16:35 S 14 G 23 10.00 Fair CLR 102.2 53.6 20% 100 29.89 0.0
30 16:15 S 20 G 28 10.00 Fair CLR 102.2 53.6 20% 100 29.9 0.0
30 15:55 S 15 G 24 10.00 Fair CLR 100.4 53.6 21% 98 29.91 0.0
30 15:35 S 15 G 28 10.00 Fair CLR 102.2 53.6 20% 100 29.92 0.0
30 15:15 S 15 G 25 10.00 Fair CLR 100.4 55.4 22% 99 29.93 0.0
30 14:55 SW 15 G 22 10.00 Fair CLR 100.4 53.6 21% 98 29.93 0.0
30 14:35 S 17 G 24 10.00 Partly Cloudy SCT085 100.4 55.4 22% 99 29.94 0.0
30 14:15 SW 18 G 24 10.00 Fair CLR 98.6 55.4 24% 97 29.94 0.0
30 13:55 S 20 G 25 10.00 Fair CLR 100.4 55.4 22% 99 29.95 0.0
30 13:35 SW 18 G 30 10.00 Fair CLR 98.6 55.4 24% 97 29.96 0.0
30 13:15 S 17 G 28 10.00 Fair CLR 98.6 55.4 24% 97 29.96 0.0
30 12:55 SW 15 G 26 10.00 Fair CLR 98.6 55.4 24% 97 29.97 0.0
30 12:35 SW 16 G 24 10.00 Fair CLR 96.8 57.2 27% 96 29.98 0.0
30 12:15 SW 17 G 25 10.00 Fair CLR 96.8 57.2 27% 96 29.99 0.0
30 11:55 SW 18 G 25 10.00 Fair CLR 95 57.2 28% 94 29.99 0.0
30 11:35 SW 20 G 28 10.00 Fair CLR 95 57.2 28% 94 30 0.0
30 11:15 SW 23 G 28 10.00 Fair and Breezy CLR 93.2 57.2 30% 92 30 0.0
30 10:55 SW 22 G 26 10.00 Fair and Breezy CLR 93.2 57.2 30% 92 29.99 0.0
30 10:35 SW 17 G 25 10.00 Fair CLR 91.4 57.2 32% 90 30 0.0
30 10:15 S 20 G 26 10.00 Fair CLR 89.6 57.2 33% 88 30 0.0
30 09:55 S 16 G 22 10.00 Fair CLR 87.8 59 38% 87 30 0.0
30 09:35 S 15 G 21 10.00 Fair CLR 87.8 59 38% 87 30 0.0
30 09:15 S 15 10.00 Fair CLR 86 59 40% 85 30 0.0
30 08:55 S 15 10.00 Fair CLR 82.4 59 45% 82 30 0.0
30 08:35 S 12 10.00 Fair CLR 80.6 59 48% 81 30 0.0
30 08:15 S 10 10.00 Fair CLR 78.8 59 51% 80 30 0.0
30 07:55 S 10 10.00 Fair CLR 77 57.2 51% 79 29.99 0.0
30 07:35 S 12 10.00 Fair CLR 77 57.2 51% 79 29.98 0.0
30 07:15 S 12 10.00 Fair CLR 77 57.2 51% 79 29.98 0.0
30 06:55 S 9 10.00 Fair CLR 77 57.2 51% 79 29.97 0.0
30 06:35 S 10 10.00 Fair CLR 77 57.2 51% 79 29.97 0.0
30 06:15 S 9 10.00 Fair CLR 77 55.4 47% 79 29.97 0.0
30 05:55 S 10 10.00 Fair CLR 78.8 55.4 45% 79 29.97 0.0
30 05:35 S 9 10.00 Fair CLR 78.8 55.4 45% 79 29.97 0.0
30 05:15 S 9 10.00 Fair CLR 78.8 55.4 45% 79 29.97 0.0
30 04:55 S 9 10.00 Fair CLR 78.8 55.4 45% 79 29.97 0.0
30 04:35 S 9 10.00 Fair CLR 78.8 55.4 45% 79 29.97 0.0
30 04:15 S 10 10.00 Fair CLR 80.6 53.6 39% 80 29.96 0.0
30 03:55 S 10 10.00 Fair CLR 80.6 53.6 39% 80 29.96 0.0
30 03:35 S 9 10.00 Fair CLR 80.6 53.6 39% 80 29.96 0.0
30 03:15 S 9 10.00 Fair CLR 78.8 53.6 42% 79 29.96 0.0
30 02:55 S 9 10.00 Fair CLR 78.8 53.6 42% 79 29.96 0.0
30 02:35 S 8 10.00 Fair CLR 78.8 53.6 42% 79 29.97 0.0
30 01:55 S 10 10.00 Fair CLR 80.6 53.6 39% 80 29.97 0.0
30 01:35 S 10 10.00 Fair CLR 80.6 51.8 37% 80 29.97 0.0
30 01:15 S 12 10.00 Fair CLR 80.6 51.8 37% 80 29.97 0.0
30 00:55 S 10 10.00 Fair CLR 82.4 51.8 35% 81 29.97 0.0
30 00:35 S 10 10.00 Fair CLR 80.6 51.8 37% 80 29.97 0.0
30 00:15 S 10 10.00 Fair CLR 82.4 50 32% 81 29.97 0.0
29 23:55 S 12 10.00 Fair CLR 82.4 50 32% 81 29.96 0.0
29 23:35 S 13 10.00 Fair CLR 86 50 29% 84 29.97 0.0
29 23:15 S 12 10.00 Fair CLR 86 48.2 27% 83 29.97 0.0
29 22:55 SE 10 10.00 Fair CLR 86 48.2 27% 83 29.97 0.0
29 22:35 S 9 10.00 Fair CLR 86 48.2 27% 83 29.96 0.0
29 22:15 S 8 10.00 Fair CLR 86 48.2 27% 83 29.96 0.0
29 21:55 S 8 10.00 Fair CLR 86 48.2 27% 83 29.95 0.0
29 21:35 S 9 10.00 Fair CLR 87.8 48.2 25% 85 29.94 0.0
29 21:15 S 8 10.00 Fair CLR 87.8 46.4 24% 85 29.93 0.0
29 20:55 S 8 10.00 Fair CLR 91.4 46.4 21% 88 29.93 0.0
29 20:35 S 12 10.00 Fair CLR 91.4 46.4 21% 88 29.92 0.0
29 19:55 S 14 G 24 10.00 Fair CLR 96.8 46.4 18% 93 29.91 0.0
29 19:35 S 15 G 23 10.00 Fair CLR 96.8 48.2 19% 93 29.91 0.0
29 19:15 S 16 G 21 10.00 Fair CLR 98.6 48.2 18% 95 29.91 0.0
29 18:55 S 21 G 24 10.00 Fair and Breezy CLR 98.6 46.4 17% 95 29.91 0.0
29 18:35 S 18 10.00 Fair CLR 100.4 46.4 16% 97 29.91 0.0
29 18:15 S 16 G 22 10.00 Fair CLR 100.4 46.4 16% 97 29.92 0.0
29 17:55 S 15 10.00 Fair CLR 100.4 46.4 16% 97 29.92 0.0
29 17:35 S 20 G 23 10.00 Fair CLR 100.4 46.4 16% 97 29.93 0.0
29 17:15 S 16 G 26 10.00 Fair CLR 102.2 46.4 15% 98 29.93 0.0
29 16:55 S 16 G 26 10.00 Fair CLR 102.2 46.4 15% 98 29.93 0.0
29 16:35 S 14 G 26 10.00 Fair CLR 100.4 48.2 17% 97 29.94 0.0
29 16:15 S 17 G 24 10.00 Fair CLR 102.2 50 17% 99 29.95 0.0
29 15:55 SW 16 G 28 10.00 Fair CLR 102.2 46.4 15% 98 29.96 0.0
29 15:35 SW 15 G 28 10.00 Fair CLR 100.4 46.4 16% 97 29.97 0.0
29 15:15 S 15 G 23 10.00 Fair CLR 100.4 48.2 17% 97 29.98 0.0
29 14:55 S 18 G 23 10.00 Fair CLR 100.4 50 18% 97 29.98 0.0
29 14:35 SW 15 G 21 10.00 Fair CLR 100.4 51.8 20% 98 30 0.0
29 14:15 S 15 G 22 10.00 Fair CLR 100.4 50 18% 97 30 0.0
29 13:55 SW 20 G 25 10.00 Fair CLR 100.4 51.8 20% 98 30.01 0.0
29 13:35 SW 16 G 26 10.00 Fair CLR 98.6 51.8 21% 96 30.02 0.0
29 13:15 S 14 10.00 Fair CLR 98.6 51.8 21% 96 30.03 0.0
29 12:55 S 15 10.00 Fair CLR 98.6 51.8 21% 96 30.04 0.0
29 11:35 SW 18 G 23 10.00 Fair CLR 95 53.6 25% 93 30.06 0.0
29 11:15 SW 18 10.00 Fair CLR 95 53.6 25% 93 30.06 0.0
29 10:55 S 18 G 22 10.00 Fair CLR 93.2 55.4 28% 91 30.06 0.0
29 10:35 S 13 G 16 10.00 Fair CLR 89.6 55.4 31% 88 30.06 0.0
29 10:15 S 10 10.00 Fair CLR 87.8 53.6 31% 86 30.07 0.0
29 09:55 S 13 10.00 Fair CLR 84.2 53.6 35% 83 30.07 0.0
29 09:35 S 12 10.00 Fair CLR 82.4 51.8 35% 81 30.08 0.0
29 09:15 S 10 10.00 Fair CLR 78.8 51.8 39% 79 30.09 0.0
29 08:55 S 12 10.00 Fair CLR 78.8 51.8 39% 79 30.09 0.0
29 08:35 S 9 10.00 Fair CLR 77 51.8 42% 78 30.09 0.0
29 08:15 S 9 10.00 Fair CLR 73.4 51.8 47% 30.08 0.0
29 07:55 S 8 10.00 Fair CLR 73.4 51.8 47% 30.08 0.0
29 07:35 S 9 10.00 Fair CLR 73.4 51.8 47% 30.07 0.0
29 07:15 SE 8 10.00 Fair CLR 73.4 50 44% 30.07 0.0
29 06:55 SE 9 10.00 Fair CLR 73.4 50 44% 30.06 0.0
29 06:35 SE 10 10.00 Fair CLR 73.4 48.2 41% 30.06 0.0
29 06:15 SE 9 10.00 Fair CLR 71.6 48.2 44% 30.06 0.0
29 05:55 S 8 10.00 Fair CLR 71.6 48.2 44% 30.06 0.0
29 05:35 S 7 10.00 Fair CLR 71.6 48.2 44% 30.06 0.0
29 05:15 S 8 10.00 Fair CLR 71.6 46.4 41% 30.06 0.0
29 04:55 S 7 10.00 Fair CLR 71.6 48.2 44% 30.06 0.0
29 04:35 S 7 10.00 Fair CLR 71.6 48.2 44% 30.06 0.0
29 04:15 S 7 10.00 Fair CLR 73.4 46.4 38% 30.06 0.0
29 03:55 S 6 10.00 Fair CLR 75.2 46.4 36% 77 30.06 0.0
29 03:35 S 5 10.00 Fair CLR 75.2 46.4 36% 77 30.06 0.0
29 03:15 S 6 10.00 Fair CLR 77 46.4 34% 78 30.06 0.0
29 02:55 S 7 10.00 Fair CLR 77 46.4 34% 78 30.07 0.0
29 02:35 S 8 10.00 Fair CLR 77 46.4 34% 78 30.07 0.0
29 02:15 S 8 10.00 Fair CLR 78.8 46.4 32% 79 30.07 0.0
29 01:55 SE 12 10.00 Fair CLR 80.6 46.4 30% 80 30.07 0.0
29 01:35 SE 12 10.00 Fair CLR 80.6 46.4 30% 80 30.07 0.0
29 01:15 SE 10 10.00 Fair CLR 80.6 46.4 30% 80 30.06 0.0
29 00:55 SE 12 10.00 Fair CLR 80.6 46.4 30% 80 30.07 0.0
29 00:35 SE 13 10.00 Fair CLR 82.4 46.4 28% 81 30.07 0.0
29 00:15 SE 14 10.00 Fair CLR 82.4 46.4 28% 81 30.07 0.0
28 23:55 SE 8 10.00 Fair CLR 80.6 46.4 30% 80 30.07 0.0
28 23:35 SE 9 10.00 Fair CLR 82.4 46.4 28% 81 30.07 0.0
28 23:15 SE 10 10.00 Fair CLR 84.2 46.4 27% 82 30.06 0.0
28 22:55 SE 10 G 17 10.00 Fair CLR 86 44.6 24% 83 30.06 0.0
28 22:35 SE 12 10.00 Fair CLR 86 44.6 24% 83 30.06 0.0
28 22:15 SE 13 10.00 Fair CLR 87.8 46.4 24% 85 30.05 0.0
28 21:55 SE 12 10.00 Fair CLR 87.8 46.4 24% 85 30.05 0.0
28 21:35 SE 12 10.00 Fair CLR 89.6 46.4 22% 86 30.04 0.0
28 21:15 SE 12 10.00 Fair CLR 89.6 50 26% 87 30.03 0.0
28 20:55 SE 9 10.00 Fair CLR 89.6 50 26% 87 30.02 0.0
28 20:35 SE 9 10.00 Fair CLR 91.4 50 24% 88 30.01 0.0
28 20:15 SE 8 10.00 Fair CLR 91.4 50 24% 88 30.01 0.0
28 19:55 SE 10 10.00 Fair CLR 95 50 22% 92 30 0.0
28 19:35 SE 8 10.00 Partly Cloudy SCT100 95 50 22% 92 30 0.0
28 19:15 SE 8 10.00 Mostly Cloudy BKN100 96.8 50 20% 94 30 0.0
28 18:55 S 9 10.00 Partly Cloudy SCT100 96.8 50 20% 94 30.01 0.0
28 18:35 S 10 10.00 Partly Cloudy SCT110 98.6 50 19% 95 30.01 0.0
28 18:15 Calm 10.00 Mostly Cloudy BKN110 96.8 50 20% 94 30.01 0.0
28 17:55 S 6 10.00 Fair CLR 96.8 50 20% 94 30.01 0.0
28 17:35 S 7 10.00 Fair CLR 98.6 50 19% 95 30.02 0.0
28 17:15 E 3 10.00 Fair CLR 98.6 50 19% 95 30.02 0.0
28 16:55 SE 10 10.00 Partly Cloudy SCT095 100.4 50 18% 97 30.03 0.0
28 16:35 SE 8 10.00 Fair CLR 98.6 50 19% 95 30.04 0.0
28 16:15 S 6 10.00 Fair CLR 98.6 50 19% 95 30.05 0.0
28 15:55 W 6 G 16 10.00 Fair CLR 98.6 50 19% 95 30.06 0.0
28 15:35 S 9 10.00 Fair CLR 96.8 50 20% 94 30.07 0.0
28 15:15 SE 7 10.00 Fair CLR 98.6 50 19% 95 30.08 0.0
28 14:55 NE 3 10.00 Fair CLR 96.8 51.8 22% 94 30.09 0.0
28 14:35 S 5 G 17 10.00 Fair CLR 96.8 51.8 22% 94 30.1 0.0
28 14:15 S 5 10.00 Fair CLR 95 51.8 23% 92 30.1 0.0
28 13:55 S 9 10.00 Fair CLR 95 51.8 23% 92 30.11 0.0
28 13:35 SE 3 10.00 Fair CLR 93.2 53.6 26% 91 30.12 0.0
28 13:15 S 5 10.00 Fair CLR 93.2 53.6 26% 91 30.13 0.0
28 12:55 SE 6 10.00 Fair CLR 91.4 53.6 28% 89 30.15 0.0
28 12:35 SE 6 10.00 Fair CLR 91.4 53.6 28% 89 30.15 0.0
28 12:15 W 6 10.00 Fair CLR 91.4 51.8 26% 89 30.16 0.0
28 11:55 SE 6 10.00 Fair CLR 91.4 53.6 28% 89 30.16 0.0
28 11:35 SE 8 10.00 Fair CLR 89.6 55.4 31% 88 30.16 0.0
28 11:15 S 8 10.00 Fair CLR 87.8 55.4 33% 86 30.16 0.0
28 10:55 S 9 10.00 Fair CLR 87.8 55.4 33% 86 30.16 0.0
28 10:35 SE 8 10.00 Fair CLR 86 55.4 35% 85 30.16 0.0
28 10:15 S 6 10.00 Fair CLR 82.4 57.2 42% 82 30.17 0.0
28 09:55 Calm 10.00 Fair CLR 82.4 57.2 42% 82 30.16 0.0
28 09:35 S 3 10.00 Fair CLR 80.6 59 48% 81 30.16 0.0
28 09:15 Calm 10.00 Fair CLR 78.8 59 51% 80 30.17 0.0
28 08:55 W 5 10.00 Fair CLR 78.8 59 51% 80 30.16 0.0
28 08:35 Calm 10.00 Fair CLR 77 59 54% 79 30.16 0.0
28 08:15 Calm 10.00 Fair CLR 73.4 59 61% 30.16 0.0
28 07:55 SE 7 10.00 Fair CLR 71.6 59 65% 30.13 0.0
28 07:35 Calm 10.00 Fair CLR 69.8 59 69% 30.14 0.0
28 07:15 Calm 10.00 Fair CLR 69.8 59 69% 30.15 0.0
28 06:55 E 3 10.00 Fair CLR 71.6 59 65% 30.14 0.0
28 06:35 E 5 10.00 Fair CLR 71.6 59 65% 30.13 0.0
28 06:15 E 5 10.00 Fair CLR 71.6 59 65% 30.13 0.0
28 05:55 E 5 10.00 Fair CLR 71.6 59 65% 30.12 0.0
28 05:35 E 3 10.00 Fair CLR 71.6 59 65% 30.13 0.0
28 05:15 E 5 10.00 Fair CLR 71.6 59 65% 30.13 0.0
28 04:55 E 5 10.00 Fair CLR 73.4 59 61% 30.13 0.0
28 04:35 SE 3 10.00 Fair CLR 77 59 54% 79 30.12 0.0
28 04:15 E 5 10.00 Fair CLR 75.2 59 57% 78 30.12 0.0
28 03:55 Calm 10.00 Fair CLR 75.2 59 57% 78 30.11 0.0
28 03:35 Calm 10.00 Fair CLR 75.2 59 57% 78 30.11 0.0
28 03:15 Calm 10.00 Fair CLR 77 59 54% 79 30.11 0.0
28 02:55 Calm 10.00 Fair CLR 77 59 54% 79 30.12 0.0
28 02:35 SE 3 10.00 Fair CLR 77 59 54% 79 30.12 0.0
28 02:15 Calm 10.00 Fair CLR 77 59 54% 79 30.12 0.0
28 01:55 E 5 10.00 Fair CLR 77 59 54% 79 30.12 0.0
28 01:35 E 5 10.00 Fair CLR 77 59 54% 79 30.12 0.0
28 01:15 E 3 10.00 Fair CLR 77 59 54% 79 30.12 0.0
28 00:55 E 5 10.00 Fair CLR 78.8 59 51% 80 30.12 0.0
28 00:35 E 6 10.00 Fair CLR 78.8 59 51% 80 30.12 0.0
28 00:15 E 6 10.00 Fair CLR 78.8 59 51% 80 30.11 0.0
27 23:55 E 5 10.00 Fair CLR 78.8 59 51% 80 30.11 0.0
27 23:35 E 6 10.00 Fair CLR 78.8 59 51% 80 30.11 0.0
Date Time (cdt) Wind (mph) Vis. (mi.) Weather Sky Cond. Air Dwpt Max. Min. Relative Humidity Wind Chill (°F) Heat Index (°F) altimeter (in) sea level (mb) 1 hr 3 hr 6 hr
6 hour
Temperature (ºF) Pressure Precipitation (in)